Time;durP1;ratioP1;P1;durP2;ratioP2;P2;SDS_P1;SDS_P2;PMS_P1;PMS_P2;Temp;Humidity;BMP_temperature;BMP_pressure;BME280_temperature;BME280_humidity;BME280_pressure;Samples;Min_cycle;Max_cycle;Signal;HPM_P1;HPM_P2
2022/12/15 00:41:02;;;;;;;25.08;14.48;;;;;;;1.77;84.00;93135.41;6194091;23;20012;-81
2022/12/15 00:43:32;;;;;;;27.38;14.77;;;;;;;1.80;84.13;93116.44;6193934;23;20198;-81
2022/12/15 00:48:42;;;;;;;24.98;15.18;;;;;;;1.88;84.19;93104.56;6194097;23;20103;-81
2022/12/15 00:51:08;;;;;;;24.67;14.45;;;;;;;1.99;83.92;93097.34;6194016;23;20008;-81
2022/12/15 01:20:58;;;;;;;16.33;9.88;;;;;;;2.75;80.64;93039.69;6193741;23;20322;-82
2022/12/15 01:23:23;;;;;;;19.80;10.85;;;;;;;2.75;80.42;93039.69;6193713;23;19996;-83
2022/12/15 01:25:52;;;;;;;17.92;11.05;;;;;;;2.76;80.36;93038.63;6167805;23;20000;-82
2022/12/15 01:28:20;;;;;;;16.77;10.40;;;;;;;2.75;79.94;93052.84;6193895;23;20035;-82
2022/12/15 01:30:46;;;;;;;17.33;10.07;;;;;;;2.72;79.96;93040.25;6193864;23;20052;-82
2022/12/15 01:33:14;;;;;;;17.33;9.90;;;;;;;2.71;80.12;93049.22;6193788;23;20005;-81
2022/12/15 01:35:40;;;;;;;15.32;9.13;;;;;;;2.72;79.95;93069.97;6194004;23;20024;-82
2022/12/15 01:38:06;;;;;;;15.80;9.02;;;;;;;2.74;80.21;93075.75;6193680;23;20248;-82
2022/12/15 01:40:43;;;;;;;14.35;8.30;;;;;;;2.79;80.10;93062.53;6193789;23;20007;-82
2022/12/15 01:43:14;;;;;;;15.27;8.98;;;;;;;2.76;80.07;93049.16;6193418;23;20004;-82
2022/12/15 01:45:47;;;;;;;15.30;8.30;;;;;;;2.76;79.92;93020.97;6194526;23;20052;-81
2022/12/15 01:48:19;;;;;;;13.18;8.13;;;;;;;2.81;79.77;93047.22;6195921;23;19993;-82
2022/12/15 01:50:53;;;;;;;14.40;8.50;;;;;;;2.79;80.00;93032.81;6195812;23;20001;-82
2022/12/15 01:53:18;;;;;;;13.38;8.05;;;;;;;2.80;80.05;93032.50;6195406;23;20051;-81
2022/12/15 01:55:46;;;;;;;13.10;7.80;;;;;;;2.83;80.15;93033.81;6196013;23;20012;-82
2022/12/15 01:58:14;;;;;;;14.27;7.68;;;;;;;2.83;80.19;93033.00;6169294;23;20190;-82
2022/12/15 02:00:40;;;;;;;13.88;7.68;;;;;;;2.83;80.15;93025.91;6169377;23;20005;-82
2022/12/15 02:03:06;;;;;;;12.57;7.53;;;;;;;2.78;80.20;92995.16;6195348;23;20043;-82
2022/12/15 02:05:33;;;;;;;10.90;6.47;;;;;;;2.79;80.19;92994.09;6169003;23;20008;-82
2022/12/15 02:08:00;;;;;;;12.00;5.40;;;;;;;2.82;80.13;92998.00;6169296;23;20001;-82
2022/12/15 02:10:32;;;;;;;8.52;5.00;;;;;;;2.82;80.16;92982.22;6195537;23;20117;-82
2022/12/15 02:13:11;;;;;;;;;;;;;;;2.82;80.08;92992.75;6195932;23;20001;-82
2022/12/15 02:16:17;;;;;;;8.57;4.35;;;;;;;2.79;80.28;92970.41;6195480;23;19900;-81
2022/12/15 02:18:54;;;;;;;7.43;4.80;;;;;;;2.77;80.60;92959.41;6195578;23;20221;-80
2022/12/15 02:21:31;;;;;;;7.57;4.55;;;;;;;2.81;80.30;92964.88;6168917;23;20195;-81
2022/12/15 02:24:18;;;;;;;6.57;3.90;;;;;;;2.83;80.12;92978.53;6195289;23;20287;-81
2022/12/15 02:26:58;;;;;;;7.38;3.95;;;;;;;2.84;80.34;92942.47;6195540;23;20043;-81
2022/12/15 02:29:48;;;;;;;6.80;4.18;;;;;;;2.87;80.45;92936.59;6195281;23;19997;-81
2022/12/15 02:32:18;;;;;;;8.02;4.68;;;;;;;2.89;80.18;92926.56;6195261;23;20008;-82
2022/12/15 02:34:53;;;;;;;6.57;3.85;;;;;;;2.89;79.94;92951.06;6169243;23;20008;-81
2022/12/15 02:37:33;;;;;;;7.35;4.32;;;;;;;2.85;79.26;92965.88;6195037;23;20005;-81
2022/12/15 02:39:59;;;;;;;9.27;5.18;;;;;;;2.65;80.24;92974.06;6195181;23;20004;-82
2022/12/15 02:42:27;;;;;;;8.80;5.00;;;;;;;2.55;80.93;92981.00;6195302;23;19996;-82
2022/12/15 02:44:58;;;;;;;8.68;5.28;;;;;;;2.37;81.46;92979.16;6195002;23;20008;-82
2022/12/15 02:47:35;;;;;;;7.93;4.57;;;;;;;2.23;82.12;92986.19;6195241;23;20035;-82
2022/12/15 02:50:19;;;;;;;9.57;5.20;;;;;;;2.05;82.85;92996.34;6195163;23;20004;-81
2022/12/15 02:53:12;;;;;;;10.82;6.03;;;;;;;1.93;83.52;93012.50;6195419;23;20028;-82
2022/12/15 02:55:59;;;;;;;11.48;5.85;;;;;;;1.95;84.13;93020.13;6194815;23;20068;-81
2022/12/15 02:58:30;;;;;;;14.48;5.15;;;;;;;1.83;84.63;93035.50;6194675;23;20017;-80
2022/12/15 03:01:07;;;;;;;10.52;5.82;;;;;;;1.75;85.05;93011.41;6195316;23;20005;-81
2022/12/15 03:03:34;;;;;;;11.18;6.30;;;;;;;1.79;85.03;93007.16;6195367;23;20029;-81
2022/12/15 03:06:01;;;;;;;11.68;5.88;;;;;;;1.84;85.29;93013.44;6194910;23;20021;-80
2022/12/15 03:08:28;;;;;;;11.63;5.20;;;;;;;1.79;85.57;93014.25;6195022;23;20068;-81
2022/12/15 03:10:55;;;;;;;12.48;6.40;;;;;;;1.86;85.13;92998.94;6194962;23;20020;-81
2022/12/15 03:13:21;;;;;;;12.18;7.22;;;;;;;1.91;85.73;93001.50;6195034;23;20051;-81
2022/12/15 03:15:46;;;;;;;14.65;8.13;;;;;;;2.00;85.72;93004.31;6195078;23;20231;-82
2022/12/15 03:18:12;;;;;;;10.80;6.60;;;;;;;2.02;85.18;92998.78;6194653;23;20012;-82
2022/12/15 03:20:37;;;;;;;14.27;7.55;;;;;;;2.02;85.21;93015.34;6194888;23;20005;-82
2022/12/15 03:23:02;;;;;;;15.50;7.70;;;;;;;1.98;84.99;93004.59;6195040;23;20048;-81
2022/12/15 03:25:28;;;;;;;12.50;7.10;;;;;;;1.97;85.02;93015.38;6194889;23;20191;-81
2022/12/15 03:27:54;;;;;;;17.90;8.43;;;;;;;1.95;85.29;93007.75;6194676;23;20000;-80
2022/12/15 03:30:19;;;;;;;13.00;7.65;;;;;;;1.92;85.61;93008.34;6194536;23;20001;-80
2022/12/15 03:32:45;;;;;;;16.15;8.55;;;;;;;1.90;85.62;93020.97;6195094;23;20003;-81
2022/12/15 03:35:11;;;;;;;18.38;8.52;;;;;;;1.85;85.39;92994.72;6168498;23;20064;-81
2022/12/15 03:37:37;;;;;;;18.20;10.23;;;;;;;1.79;85.78;92999.28;6194540;23;20005;-82
2022/12/15 03:40:03;;;;;;;17.25;9.93;;;;;;;1.71;86.25;93007.78;6168635;23;20238;-80
2022/12/15 03:42:49;;;;;;;18.95;9.88;;;;;;;1.69;86.15;93017.78;6168195;23;20172;-81
2022/12/15 03:45:20;;;;;;;21.77;11.07;;;;;;;1.67;86.66;93011.22;6194781;23;20216;-81
2022/12/15 03:47:47;;;;;;;19.97;11.70;;;;;;;1.66;86.74;93020.16;6194910;23;19999;-81
2022/12/15 03:50:17;;;;;;;18.30;11.05;;;;;;;1.59;87.10;93031.00;6194764;23;20287;-81
2022/12/15 03:52:43;;;;;;;21.23;12.63;;;;;;;1.58;86.71;93029.44;6194607;23;20000;-82
2022/12/15 03:55:09;;;;;;;20.15;11.90;;;;;;;1.63;86.72;93037.28;6194592;23;20039;-82
2022/12/15 03:57:35;;;;;;;23.63;12.30;;;;;;;1.62;86.90;93033.06;6194532;23;20012;-83
2022/12/15 04:00:00;;;;;;;24.30;12.82;;;;;;;1.62;87.12;93053.31;6168183;23;20247;-82
2022/12/15 04:02:25;;;;;;;24.55;13.68;;;;;;;1.50;87.15;93049.19;6194297;23;20354;-83
2022/12/15 04:04:51;;;;;;;26.67;14.45;;;;;;;1.45;87.47;93053.72;6168402;23;20060;-86
2022/12/15 04:07:16;;;;;;;28.23;14.30;;;;;;;1.43;87.73;93050.59;6195358;23;20009;-86
2022/12/15 04:09:42;;;;;;;28.73;15.18;;;;;;;1.41;87.67;93058.72;6195505;23;20001;-86
2022/12/15 04:12:10;;;;;;;28.25;14.20;;;;;;;1.35;88.35;93059.84;6169131;23;20012;-86
2022/12/15 04:14:41;;;;;;;28.08;14.52;;;;;;;1.31;88.72;93062.22;6195312;23;20004;-87
2022/12/15 04:17:10;;;;;;;26.85;14.73;;;;;;;1.23;89.13;93070.69;6195126;23;20407;-87
2022/12/15 04:22:20;;;;;;;33.22;15.68;;;;;;;1.22;89.39;93058.59;6195366;23;20195;-87
2022/12/15 05:33:11;;;;;;;26.08;13.80;;;;;;;1.34;88.77;93161.47;6196055;23;20039;-82
2022/12/15 05:35:36;;;;;;;26.00;14.20;;;;;;;1.36;89.36;93163.78;6169579;23;20058;-82
2022/12/15 05:38:05;;;;;;;27.25;14.23;;;;;;;1.35;89.22;93173.53;6195491;23;20012;-81
2022/12/15 05:40:30;;;;;;;23.38;12.77;;;;;;;1.35;89.18;93184.03;6195967;23;20005;-80
2022/12/15 05:42:59;;;;;;;24.80;13.18;;;;;;;1.35;89.25;93199.00;6195639;23;20199;-82
2022/12/15 05:45:26;;;;;;;27.05;13.45;;;;;;;1.26;89.27;93190.09;6195003;23;20005;-82
2022/12/15 05:47:52;;;;;;;25.48;13.75;;;;;;;1.21;89.36;93209.31;6195337;23;20007;-82
2022/12/15 05:50:19;;;;;;;24.38;13.60;;;;;;;1.24;89.50;93221.88;6194565;23;20024;-82
2022/12/15 05:52:45;;;;;;;24.48;11.98;;;;;;;1.10;89.76;93213.03;6194978;23;20016;-83
2022/12/15 05:55:10;;;;;;;24.63;13.70;;;;;;;1.06;90.40;93219.88;6194557;23;20203;-82
2022/12/15 05:57:35;;;;;;;27.35;13.57;;;;;;;1.02;90.86;93234.56;6168801;23;20077;-83
2022/12/15 06:00:02;;;;;;;24.67;12.02;;;;;;;0.99;91.23;93234.06;6195127;23;20012;-83
2022/12/15 06:02:28;;;;;;;24.33;12.75;;;;;;;1.06;91.48;93238.22;6195225;23;20198;-80
2022/12/15 06:04:53;;;;;;;23.67;13.07;;;;;;;1.06;91.31;93251.34;6195344;23;20001;-82
2022/12/15 06:07:19;;;;;;;21.98;12.05;;;;;;;1.04;91.66;93263.97;6195206;23;20004;-83
2022/12/15 06:09:44;;;;;;;21.20;12.25;;;;;;;1.00;91.70;93263.72;6195758;23;20056;-82
2022/12/15 06:12:10;;;;;;;21.90;11.85;;;;;;;1.03;91.82;93252.69;6195595;23;19997;-82
2022/12/15 06:14:35;;;;;;;26.77;12.88;;;;;;;1.06;91.93;93265.28;6195439;23;20048;-81
2022/12/15 06:17:01;;;;;;;23.75;11.93;;;;;;;1.04;92.00;93263.97;6195651;23;19997;-82
2022/12/15 06:19:26;;;;;;;21.35;12.30;;;;;;;1.10;92.30;93276.00;6195445;23;20004;-82
2022/12/15 06:21:52;;;;;;;21.33;10.38;;;;;;;1.17;91.78;93276.53;6195282;23;20091;-84
2022/12/15 06:24:17;;;;;;;23.50;12.52;;;;;;;1.19;91.64;93272.56;6195644;23;20021;-81
2022/12/15 06:26:43;;;;;;;21.95;10.75;;;;;;;1.23;91.32;93288.56;6195500;23;19989;-82
2022/12/15 06:29:11;;;;;;;28.25;13.02;;;;;;;1.26;91.36;93274.13;6195481;23;20004;-82
2022/12/15 06:31:37;;;;;;;19.15;11.50;;;;;;;1.30;91.34;93270.69;6194738;23;20047;-79
2022/12/15 06:34:04;;;;;;;25.75;11.65;;;;;;;1.27;91.37;93287.00;6169010;23;20226;-79
2022/12/15 06:36:30;;;;;;;17.98;10.95;;;;;;;1.39;91.26;93289.31;6195200;23;20052;-80
2022/12/15 06:38:58;;;;;;;20.02;11.18;;;;;;;1.43;91.36;93294.81;6195014;23;20202;-79
2022/12/15 06:41:23;;;;;;;21.98;11.75;;;;;;;1.48;91.08;93313.16;6195191;23;20076;-81
2022/12/15 06:43:50;;;;;;;18.33;10.88;;;;;;;1.58;90.65;93316.50;6168879;23;20211;-81
2022/12/15 06:46:16;;;;;;;16.40;10.07;;;;;;;1.67;90.46;93308.06;6195102;23;19997;-79
2022/12/15 06:48:43;;;;;;;20.02;11.60;;;;;;;1.75;90.12;93304.88;6195157;23;19997;-81
2022/12/15 06:51:10;;;;;;;20.25;11.57;;;;;;;1.87;89.65;93304.56;6195025;23;20067;-82
2022/12/15 06:53:37;;;;;;;21.45;11.10;;;;;;;1.93;88.58;93303.47;6168909;23;20004;-81
2022/12/15 06:56:06;;;;;;;20.88;12.40;;;;;;;2.02;88.53;93301.06;6168794;23;19993;-82
2022/12/15 06:58:31;;;;;;;22.50;11.88;;;;;;;2.14;89.11;93309.41;6194630;23;20001;-81
2022/12/15 07:00:58;;;;;;;24.25;13.85;;;;;;;2.28;88.63;93309.53;6194958;23;19997;-79
2022/12/15 07:03:23;;;;;;;20.42;12.07;;;;;;;2.38;88.29;93314.72;6195203;23;20001;-81
2022/12/15 07:06:00;;;;;;;21.40;12.02;;;;;;;2.56;88.17;93319.31;6168666;23;20064;-80
2022/12/15 07:08:25;;;;;;;23.05;11.93;;;;;;;2.72;87.41;93325.22;6194896;23;20004;-80
2022/12/15 07:10:51;;;;;;;22.50;11.30;;;;;;;2.87;86.53;93329.59;6195068;23;20064;-81
2022/12/15 07:13:16;;;;;;;24.95;12.40;;;;;;;3.06;85.57;93337.56;6195060;23;19997;-80
2022/12/15 07:15:43;;;;;;;26.90;14.90;;;;;;;3.19;84.20;93344.00;6194856;23;20008;-80
2022/12/15 07:18:09;;;;;;;31.83;12.63;;;;;;;3.24;83.37;93346.59;6194765;23;19997;-80
2022/12/15 07:20:34;;;;;;;23.45;11.68;;;;;;;3.34;83.40;93349.13;6194828;23;20008;-82
2022/12/15 07:23:02;;;;;;;18.95;10.65;;;;;;;3.37;83.35;93345.94;6168376;23;20020;-83
2022/12/15 07:25:28;;;;;;;17.08;10.43;;;;;;;3.46;83.40;93354.03;6194516;23;20015;-82
2022/12/15 07:27:53;;;;;;;25.98;12.57;;;;;;;3.57;83.24;93360.72;6194458;23;19993;-82
2022/12/15 07:30:19;;;;;;;22.70;11.90;;;;;;;3.74;82.49;93370.03;6194412;23;20007;-81
2022/12/15 07:32:44;;;;;;;19.63;10.10;;;;;;;3.81;81.66;93358.06;6194618;23;20039;-82
2022/12/15 07:35:11;;;;;;;19.15;10.65;;;;;;;3.87;81.65;93363.28;6194733;23;20028;-81
2022/12/15 07:37:37;;;;;;;26.50;11.63;;;;;;;3.99;81.09;93375.00;6194303;23;20060;-82
2022/12/15 07:40:04;;;;;;;22.02;10.85;;;;;;;4.06;81.07;93374.66;6167776;23;20001;-81
2022/12/15 07:42:30;;;;;;;25.17;13.05;;;;;;;4.16;81.51;93371.09;6194649;23;20004;-83
2022/12/15 07:44:55;;;;;;;19.67;12.23;;;;;;;4.32;81.08;93376.94;6194101;23;20017;-83
2022/12/15 07:47:20;;;;;;;21.98;12.05;;;;;;;4.42;80.14;93376.81;6168142;23;20067;-81
2022/12/15 07:49:46;;;;;;;31.58;15.23;;;;;;;4.52;80.24;93381.13;6194625;23;20004;-81
2022/12/15 07:52:12;;;;;;;24.85;13.45;;;;;;;4.66;79.90;93374.09;6194221;23;20005;-81
2022/12/15 07:54:38;;;;;;;23.77;12.38;;;;;;;4.75;80.11;93374.22;6194384;23;20000;-81
2022/12/15 07:57:06;;;;;;;22.35;10.50;;;;;;;4.85;79.60;93387.25;6194072;23;20275;-81
2022/12/15 07:59:32;;;;;;;19.10;11.40;;;;;;;4.95;79.33;93392.38;6194363;23;20007;-84
2022/12/15 08:01:59;;;;;;;19.83;11.02;;;;;;;5.08;79.11;93395.34;6194202;23;20230;-83
2022/12/15 08:04:25;;;;;;;22.08;12.93;;;;;;;5.16;78.61;93402.59;6167049;23;20005;-82
2022/12/15 08:06:52;;;;;;;26.15;14.40;;;;;;;5.23;78.64;93408.28;6192070;23;20184;-83
2022/12/15 08:09:18;;;;;;;26.02;14.43;;;;;;;5.33;78.25;93416.06;6166214;23;20001;-83
2022/12/15 08:11:43;;;;;;;29.40;14.38;;;;;;;5.45;78.29;93414.78;6192505;23;20008;-82
2022/12/15 08:14:09;;;;;;;29.08;15.55;;;;;;;5.55;78.27;93404.03;6192546;23;19997;-83
2022/12/15 08:16:35;;;;;;;35.45;17.00;;;;;;;5.67;77.96;93406.97;6192474;23;20008;-82
2022/12/15 08:19:01;;;;;;;25.63;15.27;;;;;;;5.77;77.38;93406.78;6193327;23;20021;-83
2022/12/15 08:21:27;;;;;;;21.58;12.98;;;;;;;5.77;76.44;93406.78;6194459;23;20051;-79
2022/12/15 08:23:52;;;;;;;25.02;12.88;;;;;;;5.80;76.54;93408.06;6168226;23;19996;-81
2022/12/15 08:26:18;;;;;;;26.30;13.55;;;;;;;5.80;75.88;93406.22;6194212;23;20001;-80
2022/12/15 08:28:44;;;;;;;28.63;14.13;;;;;;;5.83;75.73;93416.19;6194839;23;20000;-81
2022/12/15 08:31:16;;;;;;;26.48;13.77;;;;;;;5.69;75.48;93425.97;6194216;23;20001;-83
2022/12/15 08:33:42;;;;;;;28.67;15.30;;;;;;;5.60;76.20;93430.41;6194385;23;20001;-82
2022/12/15 08:36:09;;;;;;;29.17;15.52;;;;;;;5.55;76.07;93438.41;6194519;23;20011;-81
2022/12/15 08:38:37;;;;;;;29.20;16.55;;;;;;;5.45;77.08;93436.72;6194515;23;19997;-81
2022/12/15 08:41:18;;;;;;;28.85;15.75;;;;;;;5.46;76.95;93451.50;6194335;23;20027;-82
2022/12/15 08:43:48;;;;;;;27.98;15.00;;;;;;;5.45;76.91;93447.28;6194543;23;20059;-82
2022/12/15 08:46:15;;;;;;;35.05;18.33;;;;;;;5.46;77.70;93445.44;6194525;23;20310;-82
2022/12/15 08:48:40;;;;;;;36.58;22.52;;;;;;;5.49;78.35;93443.00;6167807;23;19997;-82
2022/12/15 08:51:07;;;;;;;32.75;19.70;;;;;;;5.59;78.64;93453.38;6168156;23;20032;-81
2022/12/15 08:53:32;;;;;;;36.40;21.63;;;;;;;5.71;78.63;93450.28;6194541;23;20016;-82
2022/12/15 08:56:04;;;;;;;37.45;23.75;;;;;;;5.87;78.23;93442.06;6196008;23;20005;-80
2022/12/15 08:58:30;;;;;;;38.15;23.35;;;;;;;6.01;77.93;93437.59;6196362;23;19997;-85
2022/12/15 09:01:04;;;;;;;43.63;21.23;;;;;;;6.15;77.81;93438.38;6196204;23;20057;-82
2022/12/15 09:03:29;;;;;;;149.45;61.10;;;;;;;6.31;77.38;93438.06;6169857;23;20044;-83
2022/12/15 09:05:56;;;;;;;193.20;82.60;;;;;;;6.46;77.34;93437.75;6169951;23;20068;-84
2022/12/15 09:08:22;;;;;;;61.15;30.77;;;;;;;6.70;77.24;93439.38;6195797;23;20295;-84
2022/12/15 09:10:48;;;;;;;42.35;23.25;;;;;;;6.84;76.33;93429.53;6195013;23;20017;-82
2022/12/15 09:13:13;;;;;;;36.97;21.85;;;;;;;7.02;76.22;93431.22;6194696;23;20000;-83
2022/12/15 09:15:42;;;;;;;29.20;17.67;;;;;;;7.19;76.30;93427.13;6196006;23;20036;-80
2022/12/15 09:18:07;;;;;;;37.05;18.50;;;;;;;7.38;75.42;93430.34;6196027;23;20009;-81
2022/12/15 09:20:33;;;;;;;29.80;16.52;;;;;;;7.57;74.19;93432.00;6195959;23;20019;-82
2022/12/15 09:22:58;;;;;;;27.38;14.90;;;;;;;7.69;73.87;93439.41;6195909;23;20001;-80
2022/12/15 09:25:24;;;;;;;30.33;14.68;;;;;;;7.81;73.74;93440.41;6196083;23;19993;-80
2022/12/15 09:27:49;;;;;;;22.58;12.50;;;;;;;7.93;72.71;93437.19;6196169;23;19999;-80
2022/12/15 09:30:15;;;;;;;21.77;12.68;;;;;;;8.07;71.88;93433.66;6196064;23;20001;-78
2022/12/15 09:32:40;;;;;;;22.80;11.73;;;;;;;8.22;71.40;93447.28;6196144;23;20004;-79
2022/12/15 09:35:06;;;;;;;21.85;13.35;;;;;;;8.23;69.75;93448.84;6195841;23;20001;-80
2022/12/15 09:37:31;;;;;;;25.85;13.40;;;;;;;8.32;69.64;93442.78;6169268;23;20056;-80
2022/12/15 09:39:57;;;;;;;22.38;13.15;;;;;;;8.39;69.91;93448.44;6195537;23;20008;-80
2022/12/15 09:42:25;;;;;;;27.75;14.35;;;;;;;8.42;70.28;93450.50;6195815;23;19993;-80
2022/12/15 09:45:11;;;;;;;24.10;13.18;;;;;;;8.43;70.39;93457.38;6195762;23;20001;-78
2022/12/15 09:47:41;;;;;;;19.33;11.95;;;;;;;8.50;69.88;93446.28;6195813;23;20000;-79
2022/12/15 09:50:12;;;;;;;24.95;13.35;;;;;;;8.53;69.72;93445.66;6195837;23;20351;-80
2022/12/15 09:52:48;;;;;;;21.25;13.00;;;;;;;8.56;68.79;93451.16;6195961;23;20003;-79
2022/12/15 09:55:23;;;;;;;22.60;12.98;;;;;;;8.59;68.89;93452.41;6169829;23;20003;-79
2022/12/15 09:57:57;;;;;;;27.30;15.65;;;;;;;8.72;68.50;93453.38;6195533;23;19997;-80
2022/12/15 10:00:28;;;;;;;38.65;20.42;;;;;;;8.80;68.23;93457.91;6193749;23;20028;-82
2022/12/15 10:03:20;;;;;;;28.80;16.07;;;;;;;8.88;67.84;93443.06;6195828;23;20282;-87
2022/12/15 10:06:08;;;;;;;34.67;19.02;;;;;;;8.94;67.39;93439.16;6129851;23;20017;-81
2022/12/15 10:08:39;;;;;;;34.42;16.88;;;;;;;8.93;67.75;93442.91;6194709;23;20009;-82
2022/12/15 10:11:24;;;;;;;25.20;14.30;;;;;;;8.97;68.09;93427.91;6193340;23;20000;-82
2022/12/15 10:13:55;;;;;;;19.75;12.25;;;;;;;8.97;67.68;93444.63;6193264;23;20212;-81
2022/12/15 10:16:29;;;;;;;26.57;13.93;;;;;;;8.96;67.64;93431.66;6193729;23;20008;-82
2022/12/15 10:19:07;;;;;;;26.50;13.65;;;;;;;8.96;68.13;93437.75;6193314;23;20304;-82
2022/12/15 10:21:33;;;;;;;27.23;13.70;;;;;;;8.93;67.83;93435.72;6193808;23;20001;-82
2022/12/15 10:24:22;;;;;;;23.55;12.93;;;;;;;8.92;68.00;93442.13;6168276;23;20005;-82
2022/12/15 10:26:55;;;;;;;34.33;15.57;;;;;;;8.92;67.82;93447.44;6194792;23;20003;-81
2022/12/15 10:29:39;;;;;;;32.65;17.02;;;;;;;8.89;67.67;93453.38;6194692;23;20001;-81
2022/12/15 10:32:15;;;;;;;26.10;15.65;;;;;;;8.82;67.76;93461.03;6194768;23;20001;-81
2022/12/15 10:34:42;;;;;;;26.92;15.45;;;;;;;8.77;68.20;93458.53;6194982;23;20000;-83
2022/12/15 10:37:15;;;;;;;35.35;18.60;;;;;;;8.72;68.78;93458.69;6194762;23;20005;-82
2022/12/15 10:39:42;;;;;;;36.50;19.02;;;;;;;8.77;68.80;93474.47;6194964;23;19996;-81
2022/12/15 10:42:13;;;;;;;33.15;18.02;;;;;;;8.80;68.89;93466.66;6194570;23;20361;-82
2022/12/15 10:44:42;;;;;;;48.97;25.35;;;;;;;8.86;68.53;93461.97;6195436;23;20008;-82
2022/12/15 10:47:09;;;;;;;32.67;18.95;;;;;;;8.86;68.31;93461.22;6195522;23;20191;-82
2022/12/15 10:49:35;;;;;;;58.00;31.15;;;;;;;8.90;68.46;93459.50;6195255;23;20036;-82
2022/12/15 10:52:01;;;;;;;198.02;83.32;;;;;;;8.92;68.54;93457.31;6195186;23;20005;-82
2022/12/15 10:54:42;;;;;;;118.75;52.47;;;;;;;8.90;68.57;93464.81;6195349;23;20191;-81
2022/12/15 10:57:30;;;;;;;64.22;35.40;;;;;;;8.86;68.69;93459.31;6194921;23;20057;-82
2022/12/15 11:00:26;;;;;;;45.08;20.40;;;;;;;8.82;69.06;93469.78;6195102;23;20004;-81
2022/12/15 11:02:51;;;;;;;30.75;17.63;;;;;;;8.87;68.87;93473.38;6195370;23;20267;-81
2022/12/15 11:05:17;;;;;;;29.48;18.17;;;;;;;8.92;69.19;93463.41;6195268;23;20001;-81
2022/12/15 11:08:12;;;;;;;32.25;18.48;;;;;;;8.96;68.92;93464.34;6195113;23;19993;-82
2022/12/15 11:13:33;;;;;;;29.83;17.33;;;;;;;9.08;69.39;93455.75;6195227;23;20245;-82
2022/12/15 11:16:13;;;;;;;28.52;17.17;;;;;;;9.22;68.69;93448.38;6195184;23;20001;-82
2022/12/15 11:18:57;;;;;;;29.42;17.42;;;;;;;9.32;68.48;93454.47;6194636;23;20023;-81
2022/12/15 11:21:25;;;;;;;25.65;16.67;;;;;;;9.40;68.54;93457.13;6195098;23;20057;-82
2022/12/15 11:24:24;;;;;;;27.77;16.02;;;;;;;9.48;68.80;93452.09;6168537;23;20060;-81
2022/12/15 11:27:13;;;;;;;30.90;14.27;;;;;;;9.54;68.46;93459.59;6168366;23;20071;-82
2022/12/15 11:29:47;;;;;;;28.02;15.32;;;;;;;9.55;68.06;93460.41;6194964;23;19997;-82
2022/12/15 11:32:14;;;;;;;32.05;18.23;;;;;;;9.57;68.21;93458.97;6195103;23;20021;-82
2022/12/15 11:34:43;;;;;;;35.88;21.05;;;;;;;9.64;68.00;93451.28;6194881;23;19997;-81
2022/12/15 11:37:23;;;;;;;35.35;21.75;;;;;;;9.62;67.71;93458.03;6195004;23;20060;-82
2022/12/15 11:40:22;;;;;;;46.75;26.30;;;;;;;9.60;67.68;93476.19;6194675;23;20053;-82
2022/12/15 11:42:51;;;;;;;37.58;20.85;;;;;;;9.41;67.06;93473.88;6194863;23;20001;-82
2022/12/15 11:45:36;;;;;;;37.38;21.77;;;;;;;9.36;67.50;93469.50;6195205;23;20056;-82
2022/12/15 11:48:17;;;;;;;39.50;22.65;;;;;;;9.36;68.05;93472.16;6194828;23;20024;-82
2022/12/15 11:51:00;;;;;;;35.30;22.10;;;;;;;9.32;68.16;93470.41;6194971;23;19997;-82
2022/12/15 11:53:53;;;;;;;40.45;23.25;;;;;;;9.34;68.63;93477.00;6194872;23;20232;-82
2022/12/15 11:56:32;;;;;;;45.90;25.00;;;;;;;9.34;68.56;93478.88;6194482;23;20000;-82
2022/12/15 11:59:09;;;;;;;39.58;24.40;;;;;;;9.35;68.53;93473.25;6194653;23;20099;-82
2022/12/15 12:01:45;;;;;;;39.90;24.85;;;;;;;9.38;68.97;93487.78;6168438;23;20004;-82
2022/12/15 12:04:34;;;;;;;38.30;22.05;;;;;;;9.42;69.09;93483.41;6194800;23;20017;-82
2022/12/15 12:07:09;;;;;;;35.00;22.20;;;;;;;9.43;69.24;93487.63;6194438;23;20004;-82
2022/12/15 12:09:52;;;;;;;38.25;21.15;;;;;;;9.44;69.21;93484.66;6194660;23;20008;-82
2022/12/15 12:12:37;;;;;;;37.90;21.05;;;;;;;9.43;69.30;93483.09;6194530;23;19993;-83
2022/12/15 12:15:34;;;;;;;28.30;17.70;;;;;;;9.42;69.18;93486.88;6194891;23;20224;-84
2022/12/15 12:18:36;;;;;;;27.17;17.10;;;;;;;9.39;69.07;93482.16;6154951;23;20001;-85
2022/12/15 12:21:07;;;;;;;30.02;18.42;;;;;;;9.40;69.33;93486.41;6118750;23;20064;-87
2022/12/15 12:23:51;;;;;;;23.77;15.40;;;;;;;9.41;69.47;93485.28;6194758;23;20036;-85
2022/12/15 12:26:31;;;;;;;24.42;12.82;;;;;;;9.48;69.20;93492.00;6194828;23;20315;-85
2022/12/15 12:29:12;;;;;;;21.92;12.90;;;;;;;9.52;69.38;93500.94;6194561;23;20048;-86
2022/12/15 12:31:57;;;;;;;19.63;12.70;;;;;;;9.50;69.32;93500.47;6194922;23;20032;-87
2022/12/15 12:34:40;;;;;;;25.08;14.15;;;;;;;9.53;69.33;93511.25;6194866;23;19997;-88
2022/12/15 12:37:17;;;;;;;23.48;13.43;;;;;;;9.51;69.38;93515.34;6195411;23;20004;-88
2022/12/15 12:39:43;;;;;;;21.90;12.60;;;;;;;9.54;69.49;93515.47;6195906;23;20020;-88
2022/12/15 12:42:20;;;;;;;20.50;13.23;;;;;;;9.57;69.38;93524.72;6195480;23;20004;-89
2022/12/15 12:44:45;;;;;;;32.17;18.15;;;;;;;9.57;69.15;93522.84;6195407;23;19993;-87
2022/12/15 12:47:32;;;;;;;30.05;18.17;;;;;;;9.56;69.59;93528.47;6195038;23;20235;-88
2022/12/15 12:50:01;;;;;;;25.73;13.82;;;;;;;9.52;69.28;93530.19;6195231;23;20000;-88
2022/12/15 12:52:28;;;;;;;24.00;14.52;;;;;;;9.54;69.27;93541.28;6194527;23;20001;-84
2022/12/15 12:54:57;;;;;;;34.78;20.33;;;;;;;9.56;69.31;93525.81;6195003;23;20001;-87
2022/12/15 12:57:33;;;;;;;37.95;20.52;;;;;;;9.54;69.75;93534.09;6195000;23;20060;-88
2022/12/15 13:00:30;;;;;;;30.30;16.13;;;;;;;9.59;69.50;93533.16;6169182;23;20012;-89
2022/12/15 13:03:11;;;;;;;38.88;23.00;;;;;;;9.54;69.94;93526.09;6195106;23;19997;-87
2022/12/15 13:05:39;;;;;;;37.30;18.70;;;;;;;9.55;69.96;93535.66;6194472;23;20203;-86
2022/12/15 13:08:04;;;;;;;22.83;13.27;;;;;;;9.57;69.61;93533.47;6194517;23;20096;-85
2022/12/15 13:10:41;;;;;;;21.55;13.07;;;;;;;9.58;69.44;93539.56;6194512;23;20202;-86
2022/12/15 13:13:28;;;;;;;21.77;13.70;;;;;;;9.55;69.22;93532.22;6194356;23;20072;-84
2022/12/15 13:16:00;;;;;;;19.45;11.90;;;;;;;9.53;69.76;93537.88;6168253;23;20001;-84
2022/12/15 13:18:26;;;;;;;24.48;13.75;;;;;;;9.51;70.30;93531.31;6194206;23;20020;-85
2022/12/15 13:20:56;;;;;;;24.98;15.82;;;;;;;9.49;70.67;93542.25;6193927;23;20001;-83
2022/12/15 13:23:24;;;;;;;30.95;18.40;;;;;;;9.51;70.63;93542.72;6194569;23;20004;-83
2022/12/15 13:25:53;;;;;;;37.80;21.40;;;;;;;9.50;70.56;93551.00;6194414;23;20001;-84
2022/12/15 13:28:25;;;;;;;37.72;20.75;;;;;;;9.48;70.17;93547.88;6194288;23;20215;-85
2022/12/15 13:31:16;;;;;;;47.42;22.10;;;;;;;9.40;70.21;93549.44;6194229;23;20001;-85
2022/12/15 13:33:54;;;;;;;44.42;24.40;;;;;;;9.33;70.64;93546.47;6194054;23;20124;-82
2022/12/15 13:36:38;;;;;;;40.05;21.92;;;;;;;9.27;70.86;93553.81;6167876;23;20109;-80
2022/12/15 13:39:10;;;;;;;34.30;21.05;;;;;;;9.16;71.02;93552.53;6194058;23;20035;-83
2022/12/15 13:41:36;;;;;;;39.95;20.55;;;;;;;9.10;71.05;93553.78;6195129;23;20012;-86
2022/12/15 13:44:14;;;;;;;43.28;21.13;;;;;;;9.01;71.18;93567.06;6196308;23;20057;-85
2022/12/15 13:46:45;;;;;;;45.42;23.52;;;;;;;8.88;71.67;93555.47;6196082;23;20001;-84
2022/12/15 13:49:19;;;;;;;38.13;21.30;;;;;;;8.78;71.95;93569.81;6196139;23;20287;-83
2022/12/15 13:51:45;;;;;;;39.25;22.52;;;;;;;8.64;71.94;93558.53;6196052;23;20011;-84
2022/12/15 13:54:28;;;;;;;39.90;23.33;;;;;;;8.56;72.30;93569.91;6196016;23;20306;-85
2022/12/15 13:57:00;;;;;;;45.38;23.92;;;;;;;8.48;73.00;93565.34;6196458;23;20059;-85
2022/12/15 13:59:45;;;;;;;44.63;22.55;;;;;;;8.44;73.58;93570.47;6196011;23;20063;-84
2022/12/15 14:02:40;;;;;;;39.60;21.50;;;;;;;8.42;74.10;93580.63;6196519;23;19997;-88
2022/12/15 14:05:10;;;;;;;37.78;21.40;;;;;;;8.36;74.42;93574.63;6138440;23;20005;-86
2022/12/15 14:07:38;;;;;;;39.72;21.45;;;;;;;8.34;74.35;93586.66;6196005;23;20044;-85
2022/12/15 14:10:07;;;;;;;42.42;23.42;;;;;;;8.23;74.55;93576.28;6195854;23;20001;-84